UPS237 EDDF-EPWA
Flight info
| Callsign | UPS237 |
|---|---|
| Flight time | N/A |
| Altitude | 33000 |
| Route | SULUS7S/18 SULUS L984 OKG DCT BALTU DCT LEGAZ DCT LAGAR DCT OKENO Q277 AGAVA |
| Aircraft | A306/H-SDE3FGHIRWY/LB1 |
Departure
| Time | 2026-05-04 20:26 |
|---|---|
| Airport | Frankfurt Main Airport (EDDF) |
Arrival
| Time | N/A |
|---|---|
| Airport | Warsaw Chopin Airport (EPWA) |
| Time | Latitude | Longitude | Altitude | Speed | Heading |
|---|---|---|---|---|---|
| 2026-05-04 19:35 | 50.02803 | 8.56941 | 356 ft | 0 kts | 250° |
| 2026-05-04 19:55 | 50.02804 | 8.56947 | 356 ft | 2 kts | 249° |
| 2026-05-04 19:55 | 50.02810 | 8.56971 | 366 ft | 2 kts | 250° |
| 2026-05-04 19:56 | 50.02816 | 8.56996 | 365 ft | 2 kts | 250° |
| 2026-05-04 19:56 | 50.02822 | 8.57020 | 364 ft | 2 kts | 249° |
| 2026-05-04 19:56 | 50.02828 | 8.57044 | 362 ft | 2 kts | 249° |
| 2026-05-04 19:56 | 50.02831 | 8.57069 | 360 ft | 2 kts | 289° |
| 2026-05-04 19:57 | 50.02822 | 8.57089 | 364 ft | 2 kts | 327° |
| 2026-05-04 19:57 | 50.02807 | 8.57101 | 362 ft | 2 kts | 340° |
| 2026-05-04 19:57 | 50.02792 | 8.57110 | 364 ft | 2 kts | 339° |
| 2026-05-04 19:57 | 50.02780 | 8.57117 | 360 ft | 1 kts | 340° |
| 2026-05-04 19:58 | 50.02778 | 8.57118 | 359 ft | 0 kts | 340° |
| 2026-05-04 20:00 | 50.02798 | 8.57107 | 364 ft | 13 kts | 340° |
| 2026-05-04 20:00 | 50.02931 | 8.57029 | 364 ft | 21 kts | 339° |
| 2026-05-04 20:01 | 50.03063 | 8.56952 | 366 ft | 19 kts | 340° |
| 2026-05-04 20:01 | 50.03181 | 8.56884 | 366 ft | 15 kts | 340° |
| 2026-05-04 20:01 | 50.03190 | 8.56879 | 363 ft | 0 kts | 340° |
| 2026-05-04 20:13 | 50.03215 | 8.56866 | 360 ft | 8 kts | 341° |
| 2026-05-04 20:14 | 50.03268 | 8.56776 | 360 ft | 16 kts | 272° |
| 2026-05-04 20:14 | 50.03225 | 8.56577 | 361 ft | 23 kts | 251° |
| 2026-05-04 20:14 | 50.03164 | 8.56318 | 355 ft | 28 kts | 249° |
| 2026-05-04 20:14 | 50.03089 | 8.56001 | 355 ft | 34 kts | 250° |
| 2026-05-04 20:15 | 50.03005 | 8.55657 | 357 ft | 33 kts | 249° |
| 2026-05-04 20:15 | 50.02930 | 8.55341 | 358 ft | 30 kts | 250° |
| 2026-05-04 20:15 | 50.02857 | 8.55044 | 358 ft | 28 kts | 250° |
| 2026-05-04 20:15 | 50.02790 | 8.54764 | 349 ft | 27 kts | 251° |
| 2026-05-04 20:16 | 50.02729 | 8.54502 | 352 ft | 25 kts | 250° |
| 2026-05-04 20:16 | 50.02676 | 8.54259 | 347 ft | 23 kts | 256° |
| 2026-05-04 20:16 | 50.02627 | 8.54033 | 348 ft | 22 kts | 250° |
| 2026-05-04 20:16 | 50.02572 | 8.53798 | 338 ft | 25 kts | 250° |
| 2026-05-04 20:17 | 50.02511 | 8.53537 | 352 ft | 25 kts | 250° |
| 2026-05-04 20:17 | 50.02453 | 8.53293 | 353 ft | 23 kts | 249° |
| 2026-05-04 20:17 | 50.02399 | 8.53071 | 338 ft | 22 kts | 249° |
| 2026-05-04 20:17 | 50.02384 | 8.53010 | 339 ft | 0 kts | 247° |
| 2026-05-04 20:19 | 50.02384 | 8.53008 | 338 ft | 1 kts | 254° |
| 2026-05-04 20:20 | 50.02389 | 8.52998 | 338 ft | 2 kts | 307° |
| 2026-05-04 20:20 | 50.02421 | 8.52970 | 338 ft | 9 kts | 325° |
| 2026-05-04 20:20 | 50.02485 | 8.52854 | 353 ft | 19 kts | 325° |
| 2026-05-04 20:20 | 50.02646 | 8.52824 | 344 ft | 26 kts | 359° |
| 2026-05-04 20:21 | 50.02828 | 8.52822 | 348 ft | 28 kts | 359° |
| 2026-05-04 20:21 | 50.03042 | 8.52821 | 351 ft | 33 kts | 360° |
| 2026-05-04 20:21 | 50.03299 | 8.52815 | 339 ft | 21 kts | 0° |
| 2026-05-04 20:22 | 50.03366 | 8.52815 | 347 ft | 0 kts | 0° |
| 2026-05-04 20:22 | 50.03367 | 8.52815 | 347 ft | 2 kts | 0° |
| 2026-05-04 20:22 | 50.03409 | 8.52815 | 351 ft | 9 kts | 356° |
| 2026-05-04 20:22 | 50.03429 | 8.52753 | 348 ft | 11 kts | 268° |
| 2026-05-04 20:23 | 50.03382 | 8.52597 | 348 ft | 16 kts | 199° |
| 2026-05-04 20:23 | 50.03335 | 8.52593 | 347 ft | 0 kts | 177° |
| 2026-05-04 20:25 | 50.03265 | 8.52596 | 346 ft | 37 kts | 180° |
| 2026-05-04 20:25 | 50.02771 | 8.52600 | 347 ft | 103 kts | 179° |
| 2026-05-04 20:25 | 50.01861 | 8.52610 | 341 ft | 158 kts | 180° |
| 2026-05-04 20:25 | 50.00608 | 8.52620 | 576 ft | 195 kts | 181° |
| 2026-05-04 20:26 | 49.99151 | 8.52575 | 1140 ft | 217 kts | 182° |
| 2026-05-04 20:26 | 49.97626 | 8.52499 | 2100 ft | 222 kts | 180° |
| 2026-05-04 20:26 | 49.96120 | 8.52933 | 3084 ft | 223 kts | 158° |
| 2026-05-04 20:26 | 49.94805 | 8.54300 | 3821 ft | 236 kts | 133° |
| 2026-05-04 20:27 | 49.94071 | 8.56575 | 4566 ft | 245 kts | 101° |
| 2026-05-04 20:27 | 49.93927 | 8.59269 | 5202 ft | 253 kts | 96° |
| 2026-05-04 20:27 | 49.93778 | 8.61978 | 6050 ft | 252 kts | 98° |
| 2026-05-04 20:27 | 49.93606 | 8.64752 | 6582 ft | 268 kts | 98° |
| 2026-05-04 20:28 | 49.93413 | 8.67652 | 7335 ft | 270 kts | 99° |
| 2026-05-04 20:28 | 49.92973 | 8.70495 | 7995 ft | 274 kts | 118° |
| 2026-05-04 20:28 | 49.91812 | 8.72832 | 8471 ft | 283 kts | 145° |
| 2026-05-04 20:28 | 49.90137 | 8.74551 | 8971 ft | 290 kts | 150° |
| 2026-05-04 20:29 | 49.88481 | 8.76221 | 10086 ft | 278 kts | 145° |
| 2026-05-04 20:29 | 49.87252 | 8.78470 | 11081 ft | 276 kts | 121° |
| 2026-05-04 20:29 | 49.86425 | 8.81268 | 11402 ft | 295 kts | 118° |
| 2026-05-04 20:29 | 49.85514 | 8.84249 | 11579 ft | 315 kts | 119° |
| 2026-05-04 20:30 | 49.84527 | 8.87321 | 12108 ft | 318 kts | 120° |
| 2026-05-04 20:30 | 49.83505 | 8.90278 | 12990 ft | 312 kts | 125° |
| 2026-05-04 20:30 | 49.82190 | 8.93007 | 13382 ft | 323 kts | 131° |
| 2026-05-04 20:30 | 49.80792 | 8.95847 | 13660 ft | 341 kts | 126° |
| 2026-05-04 20:31 | 49.79609 | 8.99133 | 13906 ft | 357 kts | 121° |
| 2026-05-04 20:31 | 49.78423 | 9.02599 | 14158 ft | 371 kts | 120° |
| 2026-05-04 20:31 | 49.77200 | 9.06190 | 14399 ft | 384 kts | 120° |
| 2026-05-04 20:31 | 49.76101 | 9.10035 | 14676 ft | 398 kts | 110° |
| 2026-05-04 20:32 | 49.75367 | 9.14152 | 15128 ft | 405 kts | 106° |
| 2026-05-04 20:32 | 49.74699 | 9.18403 | 15639 ft | 409 kts | 106° |
| 2026-05-04 20:32 | 49.74021 | 9.22699 | 16168 ft | 413 kts | 106° |
| 2026-05-04 20:32 | 49.73329 | 9.27020 | 16706 ft | 416 kts | 106° |
| 2026-05-04 20:33 | 49.72626 | 9.31381 | 17236 ft | 420 kts | 106° |
| 2026-05-04 20:33 | 49.71914 | 9.35766 | 17753 ft | 423 kts | 106° |
| 2026-05-04 20:33 | 49.71193 | 9.40194 | 18263 ft | 426 kts | 107° |
| 2026-05-04 20:33 | 49.70466 | 9.44641 | 18698 ft | 429 kts | 107° |
| 2026-05-04 20:34 | 49.69730 | 9.49126 | 19097 ft | 433 kts | 107° |
| 2026-05-04 20:34 | 49.68986 | 9.53651 | 19488 ft | 436 kts | 107° |
| 2026-05-04 20:34 | 49.68235 | 9.58198 | 19890 ft | 439 kts | 107° |
| 2026-05-04 20:34 | 49.67535 | 9.62815 | 20291 ft | 443 kts | 102° |
| 2026-05-04 20:35 | 49.67310 | 9.65963 | 20547 ft | 448 kts | 94° |
| 2026-05-04 20:35 | 49.67564 | 9.70787 | 20942 ft | 455 kts | 81° |
| 2026-05-04 20:35 | 49.68322 | 9.75553 | 21349 ft | 458 kts | 76° |
| 2026-05-04 20:35 | 49.69179 | 9.80314 | 21734 ft | 461 kts | 76° |
| 2026-05-04 20:36 | 49.70043 | 9.85107 | 22110 ft | 464 kts | 76° |
| 2026-05-04 20:36 | 49.70918 | 9.89924 | 22496 ft | 467 kts | 75° |
| 2026-05-04 20:36 | 49.72077 | 9.94636 | 22839 ft | 472 kts | 65° |
| 2026-05-04 20:36 | 49.73746 | 9.99021 | 23208 ft | 475 kts | 57° |
| 2026-05-04 20:37 | 49.75652 | 10.03205 | 23548 ft | 478 kts | 55° |
| 2026-05-04 20:37 | 49.77602 | 10.07388 | 23838 ft | 481 kts | 54° |
| 2026-05-04 20:37 | 49.79563 | 10.11601 | 24114 ft | 483 kts | 55° |
| 2026-05-04 20:37 | 49.81527 | 10.15841 | 24388 ft | 485 kts | 55° |
| 2026-05-04 20:38 | 49.83464 | 10.20038 | 24673 ft | 487 kts | 55° |
| 2026-05-04 20:38 | 49.85443 | 10.24338 | 24943 ft | 489 kts | 55° |
| 2026-05-04 20:38 | 49.87421 | 10.28646 | 25208 ft | 492 kts | 55° |
| 2026-05-04 20:38 | 49.89404 | 10.32975 | 25475 ft | 493 kts | 55° |
| 2026-05-04 20:39 | 49.91395 | 10.37327 | 25742 ft | 495 kts | 55° |
| 2026-05-04 20:39 | 49.93392 | 10.41702 | 25997 ft | 497 kts | 55° |
| 2026-05-04 20:39 | 49.95394 | 10.46093 | 26252 ft | 499 kts | 55° |
| 2026-05-04 20:39 | 49.97399 | 10.50500 | 26498 ft | 501 kts | 55° |
| 2026-05-04 20:40 | 49.99413 | 10.54934 | 26733 ft | 503 kts | 55° |
| 2026-05-04 20:40 | 50.01430 | 10.59381 | 26999 ft | 504 kts | 55° |
| 2026-05-04 20:40 | 50.03449 | 10.63846 | 27344 ft | 503 kts | 56° |
| 2026-05-04 20:40 | 50.05283 | 10.68460 | 27673 ft | 502 kts | 63° |
| 2026-05-04 20:41 | 50.06623 | 10.73455 | 28011 ft | 500 kts | 74° |
| 2026-05-04 20:41 | 50.07370 | 10.78718 | 28321 ft | 497 kts | 85° |
| 2026-05-04 20:41 | 50.07598 | 10.84063 | 28672 ft | 494 kts | 90° |
| 2026-05-04 20:41 | 50.07661 | 10.89399 | 29000 ft | 493 kts | 92° |
| 2026-05-04 20:42 | 50.07650 | 10.94664 | 29326 ft | 492 kts | 93° |
| 2026-05-04 20:42 | 50.07610 | 10.99997 | 29663 ft | 492 kts | 93° |
| 2026-05-04 20:42 | 50.07566 | 11.05310 | 29979 ft | 491 kts | 93° |
| 2026-05-04 20:42 | 50.07526 | 11.11333 | 30300 ft | 491 kts | 92° |
| 2026-05-04 20:43 | 50.07478 | 11.21953 | 30879 ft | 489 kts | 92° |
| 2026-05-04 20:43 | 50.07440 | 11.32540 | 31459 ft | 488 kts | 92° |
| 2026-05-04 20:43 | 50.07397 | 11.43062 | 32065 ft | 485 kts | 92° |
| 2026-05-04 20:43 | 50.07343 | 11.53541 | 32673 ft | 483 kts | 93° |
| 2026-05-04 20:44 | 50.07280 | 11.64001 | 32967 ft | 483 kts | 93° |
| 2026-05-04 20:44 | 50.07212 | 11.74425 | 32971 ft | 480 kts | 93° |
| 2026-05-04 20:44 | 50.07054 | 11.95165 | 32974 ft | 479 kts | 93° |
| 2026-05-04 20:45 | 50.06852 | 12.15873 | 32960 ft | 478 kts | 93° |
| 2026-05-04 20:45 | 50.06576 | 12.36577 | 32953 ft | 478 kts | 93° |
| 2026-05-04 20:46 | 50.06935 | 12.57314 | 32962 ft | 480 kts | 89° |
| 2026-05-04 20:46 | 50.07599 | 12.77964 | 32965 ft | 481 kts | 89° |
| 2026-05-04 20:47 | 50.08143 | 12.98785 | 32968 ft | 481 kts | 90° |
| 2026-05-04 20:47 | 50.08650 | 13.19615 | 32966 ft | 482 kts | 90° |
| 2026-05-04 20:48 | 50.09197 | 13.30012 | 32954 ft | 484 kts | 78° |
| 2026-05-04 20:48 | 50.11748 | 13.39685 | 32971 ft | 485 kts | 59° |
| 2026-05-04 20:48 | 50.18839 | 13.57684 | 32955 ft | 487 kts | 58° |
| 2026-05-04 20:49 | 50.25966 | 13.75732 | 32956 ft | 488 kts | 58° |
| 2026-05-04 20:49 | 50.32996 | 13.93755 | 32960 ft | 489 kts | 58° |
| 2026-05-04 20:50 | 50.40054 | 14.11971 | 32956 ft | 489 kts | 58° |
| 2026-05-04 20:50 | 50.46997 | 14.30014 | 32946 ft | 489 kts | 58° |
| 2026-05-04 20:51 | 50.53991 | 14.48321 | 32944 ft | 488 kts | 58° |